createdAt,value
2023-01-20T00:01:21.738Z,14.43
2023-01-20T00:03:48.469Z,15.20
2023-01-20T00:06:15.323Z,14.05
2023-01-20T00:08:42.065Z,14.57
2023-01-20T00:11:12.409Z,15.38
2023-01-20T00:13:39.744Z,13.52
2023-01-20T00:16:08.971Z,16.45
2023-01-20T00:18:36.195Z,14.40
2023-01-20T00:21:04.541Z,13.63
2023-01-20T00:23:32.132Z,12.65
2023-01-20T00:25:58.936Z,13.02
2023-01-20T00:30:53.410Z,13.93
2023-01-20T00:33:20.137Z,15.15
2023-01-20T00:35:46.881Z,14.10
2023-01-20T00:38:15.307Z,11.90
2023-01-20T00:40:42.143Z,13.37
2023-01-20T00:43:08.918Z,13.10
2023-01-20T00:45:35.845Z,13.27
2023-01-20T00:48:02.772Z,11.98
2023-01-20T00:50:29.486Z,11.95
2023-01-20T00:52:56.145Z,11.93
2023-01-20T00:55:23.167Z,13.35
2023-01-20T00:57:49.852Z,11.82
2023-01-20T01:00:18.727Z,12.15
2023-01-20T01:02:45.419Z,14.05
2023-01-20T01:05:12.478Z,15.18
2023-01-20T01:07:39.256Z,17.73
2023-01-20T01:10:06.531Z,17.17
2023-01-20T01:12:33.228Z,17.15
2023-01-20T01:14:59.900Z,17.30
2023-01-20T01:17:26.556Z,18.70
2023-01-20T01:19:53.723Z,17.17
2023-01-20T01:22:21.760Z,16.70
2023-01-20T01:24:48.893Z,17.42
2023-01-20T01:27:15.815Z,16.83
2023-01-20T01:29:42.704Z,17.92
2023-01-20T01:32:09.507Z,19.10
2023-01-20T01:34:36.235Z,19.55
2023-01-20T01:37:02.974Z,19.55
2023-01-20T01:39:29.719Z,17.10
2023-01-20T01:41:56.534Z,17.63
2023-01-20T01:44:26.262Z,15.23
2023-01-20T01:46:52.973Z,16.77
2023-01-20T01:49:24.910Z,15.85
2023-01-20T01:51:58.775Z,16.50
2023-01-20T01:54:30.149Z,15.63
2023-01-20T01:56:57.137Z,15.05
2023-01-20T01:59:23.816Z,14.20
2023-01-20T02:01:52.886Z,14.77
2023-01-20T02:04:23.396Z,15.90
2023-01-20T02:07:00.910Z,14.63
2023-01-20T02:09:28.990Z,15.63
2023-01-20T02:12:04.114Z,20.60
2023-01-20T02:14:41.488Z,22.15
2023-01-20T02:17:28.833Z,20.50
2023-01-20T02:20:08.477Z,19.55
2023-01-20T02:22:56.578Z,18.10
2023-01-20T02:25:38.816Z,18.00
2023-01-20T02:28:23.704Z,19.70
2023-01-20T02:31:13.590Z,16.90
2023-01-20T02:33:54.645Z,17.63
2023-01-20T02:36:32.393Z,17.45
2023-01-20T02:39:32.892Z,15.25
2023-01-20T02:42:14.961Z,16.38
2023-01-20T02:44:45.455Z,16.80
2023-01-20T02:47:12.093Z,16.58
2023-01-20T02:50:01.737Z,15.98
2023-01-20T02:52:34.359Z,14.65
2023-01-20T02:55:06.519Z,14.85
2023-01-20T02:57:40.681Z,16.88
2023-01-20T03:00:16.836Z,16.75
2023-01-20T03:02:45.509Z,17.00
2023-01-20T03:05:18.618Z,16.00
2023-01-20T03:07:47.918Z,15.70
2023-01-20T03:12:48.654Z,15.48
2023-01-20T03:15:17.609Z,16.40
2023-01-20T03:17:44.295Z,17.35
2023-01-20T03:20:11.646Z,15.57
2023-01-20T03:22:38.543Z,15.95
2023-01-20T03:25:06.674Z,14.93
2023-01-20T03:27:34.224Z,14.70
2023-01-20T03:30:00.969Z,16.35
2023-01-20T03:32:28.837Z,17.67
2023-01-20T03:34:56.682Z,17.15
2023-01-20T03:37:23.522Z,14.93
2023-01-20T03:39:52.121Z,16.50
2023-01-20T03:42:30.084Z,16.80
2023-01-20T03:45:01.857Z,15.70
2023-01-20T03:47:53.336Z,18.23
2023-01-20T03:50:47.861Z,17.98
2023-01-20T03:53:29.069Z,18.77
2023-01-20T03:56:17.319Z,17.30
2023-01-20T03:58:49.108Z,17.05
2023-01-20T04:01:19.460Z,17.02
2023-01-20T04:03:48.907Z,16.75
2023-01-20T04:06:18.292Z,16.63
2023-01-20T04:11:14.440Z,15.65
2023-01-20T04:13:41.250Z,16.20
2023-01-20T04:16:16.207Z,16.08
2023-01-20T04:18:46.304Z,15.75
2023-01-20T04:21:31.546Z,16.67
2023-01-20T04:24:07.059Z,17.90
2023-01-20T04:26:33.941Z,15.70
2023-01-20T04:29:09.886Z,15.70
2023-01-20T04:31:38.502Z,17.65
2023-01-20T04:34:05.442Z,16.05
2023-01-20T04:36:32.204Z,16.27
2023-01-20T04:38:58.896Z,15.93
2023-01-20T04:41:25.717Z,15.57
2023-01-20T04:43:52.404Z,15.35
2023-01-20T04:46:19.179Z,15.35
2023-01-20T04:48:46.436Z,14.75
2023-01-20T04:51:13.799Z,14.30
2023-01-20T04:53:40.800Z,15.27
2023-01-20T04:56:15.675Z,13.90
2023-01-20T04:58:43.396Z,14.25
2023-01-20T05:01:10.235Z,16.02
2023-01-20T05:03:37.440Z,14.57
2023-01-20T05:06:04.413Z,15.15
2023-01-20T05:08:31.267Z,16.00
2023-01-20T05:10:58.259Z,14.40
2023-01-20T05:13:25.062Z,15.27
2023-01-20T05:15:51.887Z,16.85
2023-01-20T05:18:18.555Z,17.00
2023-01-20T05:20:46.979Z,16.73
2023-01-20T05:23:13.744Z,15.10
2023-01-20T05:25:40.515Z,15.98
2023-01-20T05:28:07.837Z,16.75
2023-01-20T05:30:34.894Z,17.95
2023-01-20T05:33:01.676Z,17.98
2023-01-20T05:35:28.685Z,18.27
2023-01-20T05:37:55.919Z,18.48
2023-01-20T05:40:22.923Z,17.65
2023-01-20T05:42:49.619Z,17.17
2023-01-20T05:45:17.346Z,15.38
2023-01-20T05:47:44.395Z,16.52
2023-01-20T05:50:11.757Z,16.17
2023-01-20T05:52:38.618Z,14.35
2023-01-20T05:55:05.985Z,16.48
2023-01-20T05:57:32.735Z,15.82
2023-01-20T05:59:59.531Z,18.30
2023-01-20T06:02:26.473Z,17.17
2023-01-20T06:04:53.333Z,15.55
2023-01-20T06:07:20.247Z,16.65
2023-01-20T06:09:47.030Z,19.05
2023-01-20T06:12:14.104Z,21.33
2023-01-20T06:14:40.936Z,19.65
2023-01-20T06:17:07.733Z,24.67
2023-01-20T06:19:34.583Z,27.85
2023-01-20T06:22:01.544Z,21.50
2023-01-20T06:24:28.479Z,21.42
2023-01-20T06:26:55.547Z,29.17
2023-01-20T06:29:22.561Z,37.35
2023-01-20T06:31:49.345Z,23.20
2023-01-20T06:34:15.970Z,25.88
2023-01-20T06:36:42.603Z,25.48
2023-01-20T06:39:09.353Z,23.83
2023-01-20T06:41:36.067Z,22.38
2023-01-20T06:44:02.740Z,23.98
2023-01-20T06:46:29.667Z,20.48
2023-01-20T06:49:00.884Z,19.90
2023-01-20T06:51:29.642Z,21.48
2023-01-20T06:53:56.983Z,20.00
2023-01-20T06:56:24.180Z,20.55
2023-01-20T06:58:51.270Z,26.38
2023-01-20T07:01:26.966Z,20.35
2023-01-20T07:03:53.941Z,27.75
2023-01-20T07:06:31.658Z,23.50
2023-01-20T07:08:59.462Z,25.10
2023-01-20T07:11:26.679Z,19.83
2023-01-20T07:13:53.360Z,20.20
2023-01-20T07:16:20.141Z,18.73
2023-01-20T07:18:51.686Z,23.85
2023-01-20T07:21:18.790Z,20.50
2023-01-20T07:23:47.410Z,24.58
2023-01-20T07:26:16.578Z,26.40
2023-01-20T07:28:43.384Z,22.02
2023-01-20T07:31:15.797Z,21.52
2023-01-20T07:33:42.807Z,20.50
2023-01-20T07:36:11.512Z,20.73
2023-01-20T07:38:38.660Z,21.88
2023-01-20T07:41:08.630Z,23.05
2023-01-20T07:43:35.235Z,33.50
2023-01-20T07:46:04.009Z,49.83
2023-01-20T07:48:32.402Z,33.70
2023-01-20T07:51:05.842Z,40.80
2023-01-20T07:53:40.656Z,31.30
2023-01-20T07:56:10.621Z,24.23
2023-01-20T07:58:37.968Z,28.98
2023-01-20T08:01:08.706Z,23.95
2023-01-20T08:03:35.954Z,23.40
2023-01-20T08:06:07.211Z,21.10
2023-01-20T08:08:34.927Z,23.38
2023-01-20T08:11:02.780Z,21.67
2023-01-20T08:13:30.029Z,22.10
2023-01-20T08:16:01.647Z,21.25
2023-01-20T08:18:29.127Z,22.83
2023-01-20T08:20:55.820Z,21.00
2023-01-20T08:23:22.496Z,20.98
2023-01-20T08:25:49.354Z,20.55
2023-01-20T08:28:16.042Z,22.10
2023-01-20T08:30:42.812Z,22.60
2023-01-20T08:33:09.511Z,21.92
2023-01-20T08:35:36.645Z,21.85
2023-01-20T08:38:03.630Z,24.50
2023-01-20T08:40:30.348Z,25.02
2023-01-20T08:42:57.232Z,25.52
2023-01-20T08:45:24.116Z,25.02
2023-01-20T08:47:50.954Z,25.30
2023-01-20T08:50:17.798Z,22.92
2023-01-20T08:52:44.567Z,25.15
2023-01-20T08:55:11.400Z,25.95
2023-01-20T08:57:38.133Z,25.38
2023-01-20T09:00:08.656Z,23.88
2023-01-20T09:02:36.900Z,25.30
2023-01-20T09:05:05.000Z,24.98
2023-01-20T09:07:31.607Z,22.95
2023-01-20T09:09:58.280Z,28.55
2023-01-20T09:12:25.013Z,25.60
2023-01-20T09:14:51.892Z,23.60
2023-01-20T09:17:18.728Z,23.95
2023-01-20T09:19:45.449Z,23.95
2023-01-20T09:22:12.188Z,24.17
2023-01-20T09:24:38.900Z,23.38
2023-01-20T09:27:05.805Z,23.65
2023-01-20T09:29:32.459Z,23.08
2023-01-20T09:31:59.256Z,26.50
2023-01-20T09:34:29.620Z,25.17
2023-01-20T09:36:58.434Z,25.85
2023-01-20T09:39:44.135Z,26.67
2023-01-20T09:42:47.578Z,27.35
2023-01-20T09:45:34.771Z,25.23
2023-01-20T09:48:41.019Z,22.27
2023-01-20T09:51:34.943Z,25.60
2023-01-20T09:54:01.481Z,22.92
2023-01-20T09:56:30.961Z,19.63
2023-01-20T10:01:41.650Z,19.85
2023-01-20T10:04:46.473Z,19.73
2023-01-20T10:07:37.530Z,21.25
2023-01-20T10:10:14.591Z,20.75
2023-01-20T10:12:47.592Z,19.58
2023-01-20T10:15:29.880Z,19.92
2023-01-20T10:18:15.448Z,18.95
2023-01-20T10:20:59.793Z,19.08
2023-01-20T10:23:42.641Z,18.58
2023-01-20T10:26:18.907Z,20.05
2023-01-20T10:28:53.440Z,19.58
2023-01-20T10:31:27.559Z,19.75
2023-01-20T10:33:59.006Z,18.55
2023-01-20T10:36:30.269Z,19.25
2023-01-20T10:39:09.498Z,19.05
2023-01-20T10:41:47.294Z,19.00
2023-01-20T10:44:15.557Z,18.23
2023-01-20T10:46:55.818Z,20.13
2023-01-20T10:49:43.828Z,18.95
2023-01-20T10:52:22.744Z,19.88
2023-01-20T10:55:11.423Z,18.17
2023-01-20T10:57:38.996Z,16.92
2023-01-20T11:00:17.790Z,16.42
2023-01-20T11:02:45.029Z,18.20
2023-01-20T11:05:19.219Z,19.23
2023-01-20T11:07:47.892Z,16.20
2023-01-20T11:10:26.614Z,15.68
2023-01-20T11:12:56.911Z,15.68
2023-01-20T11:15:30.717Z,15.15
2023-01-20T11:18:15.731Z,14.27
2023-01-20T11:20:52.506Z,14.10
2023-01-20T11:23:40.197Z,15.07
2023-01-20T11:26:31.537Z,13.63
2023-01-20T11:29:03.820Z,13.15
2023-01-20T11:31:41.241Z,14.45
2023-01-20T11:34:26.895Z,13.32
2023-01-20T11:37:05.665Z,12.82
2023-01-20T11:39:43.017Z,12.98
2023-01-20T11:42:30.791Z,13.63
2023-01-20T11:45:20.344Z,13.88
2023-01-20T11:48:16.518Z,12.68
2023-01-20T11:50:54.356Z,14.32
2023-01-20T11:53:26.163Z,13.13
2023-01-20T11:56:18.244Z,13.27
2023-01-20T11:58:55.496Z,12.55
2023-01-20T12:01:28.209Z,13.85
2023-01-20T12:04:35.316Z,12.73
2023-01-20T12:07:07.532Z,12.90
2023-01-20T12:09:39.014Z,12.73
2023-01-20T12:12:15.295Z,11.38
2023-01-20T12:14:58.509Z,13.38
2023-01-20T12:17:41.880Z,12.63
2023-01-20T12:20:14.258Z,10.77
2023-01-20T12:23:05.988Z,11.98
2023-01-20T12:25:43.506Z,11.75
2023-01-20T12:28:19.714Z,12.82
2023-01-20T12:30:53.809Z,11.77
2023-01-20T12:33:34.083Z,10.68
2023-01-20T12:36:41.896Z,11.85
2023-01-20T12:39:29.689Z,13.07
2023-01-20T12:42:27.854Z,11.80
2023-01-20T12:45:13.212Z,11.23
2023-01-20T12:47:59.321Z,12.50
2023-01-20T12:50:38.173Z,12.70
2023-01-20T12:53:16.984Z,13.45
2023-01-20T12:55:55.772Z,12.88
2023-01-20T12:58:37.152Z,13.23
2023-01-20T13:01:32.205Z,12.32
2023-01-20T13:04:01.809Z,12.18
2023-01-20T13:06:40.674Z,14.18
2023-01-20T13:09:28.104Z,11.90
2023-01-20T13:12:07.019Z,12.63
2023-01-20T13:14:56.758Z,12.32
2023-01-20T13:17:39.533Z,13.25
2023-01-20T13:20:20.274Z,11.90
2023-01-20T13:22:48.053Z,12.52
2023-01-20T13:25:19.128Z,12.85
2023-01-20T13:27:49.613Z,12.05
2023-01-20T13:30:43.954Z,11.60
2023-01-20T13:33:29.599Z,12.65
2023-01-20T13:35:57.384Z,11.80
2023-01-20T13:38:30.696Z,12.77
2023-01-20T13:41:03.525Z,11.80
2023-01-20T13:43:47.033Z,11.93
2023-01-20T13:46:17.163Z,13.00
2023-01-20T13:49:21.260Z,12.43
2023-01-20T13:51:48.231Z,14.55
2023-01-20T13:54:29.100Z,15.05
2023-01-20T13:57:21.683Z,15.70
2023-01-20T13:59:48.269Z,15.50
2023-01-20T14:02:19.605Z,15.38
2023-01-20T14:04:46.431Z,14.45
2023-01-20T14:07:28.536Z,14.02
2023-01-20T14:09:57.999Z,12.70
2023-01-20T14:14:52.249Z,13.25
2023-01-20T14:17:22.168Z,14.35
2023-01-20T14:19:52.154Z,13.75
2023-01-20T14:22:22.890Z,14.13
2023-01-20T14:24:54.344Z,13.63
2023-01-20T14:27:28.269Z,14.18
2023-01-20T14:29:58.246Z,13.70
2023-01-20T14:32:31.590Z,13.00
2023-01-20T14:34:59.118Z,14.13
2023-01-20T14:37:33.211Z,13.27
2023-01-20T14:40:02.750Z,14.63
2023-01-20T14:42:29.789Z,12.98
2023-01-20T14:44:57.759Z,14.82
2023-01-20T14:47:26.671Z,15.25
2023-01-20T14:49:54.646Z,16.17
2023-01-20T14:52:29.902Z,17.67
2023-01-20T14:54:56.949Z,18.73
2023-01-20T14:57:34.784Z,19.70
2023-01-20T15:00:21.306Z,17.38
2023-01-20T15:03:09.221Z,14.43
2023-01-20T15:05:40.655Z,14.80
2023-01-20T15:08:25.299Z,16.63
2023-01-20T15:11:14.233Z,15.27
2023-01-20T15:13:42.549Z,14.50
2023-01-20T15:16:24.358Z,16.20
2023-01-20T15:19:20.227Z,13.13
2023-01-20T15:21:51.391Z,17.48
2023-01-20T15:24:24.366Z,17.55
2023-01-20T15:26:53.953Z,16.60
2023-01-20T15:29:23.128Z,19.48
2023-01-20T15:31:51.652Z,18.77
2023-01-20T15:34:19.822Z,19.27
2023-01-20T15:36:47.575Z,19.15
2023-01-20T15:39:15.381Z,18.65
2023-01-20T15:41:42.331Z,18.92
2023-01-20T15:44:09.123Z,18.23
2023-01-20T15:46:36.290Z,19.30
2023-01-20T15:49:02.956Z,18.27
2023-01-20T15:51:29.574Z,19.00
2023-01-20T15:53:56.275Z,18.65
2023-01-20T15:56:26.498Z,18.20
2023-01-20T15:58:53.675Z,18.17
2023-01-20T16:01:24.984Z,18.48
2023-01-20T16:03:52.488Z,18.15
2023-01-20T16:06:21.361Z,17.42
2023-01-20T16:08:49.635Z,18.15
2023-01-20T16:11:18.660Z,19.88
2023-01-20T16:13:45.558Z,20.65
2023-01-20T16:16:24.886Z,20.05
2023-01-20T16:18:53.123Z,20.35
2023-01-20T16:21:20.040Z,19.95
2023-01-20T16:23:46.765Z,21.60
2023-01-20T16:26:28.353Z,21.10
2023-01-20T16:28:57.595Z,20.45
2023-01-20T16:31:25.616Z,18.92
2023-01-20T16:33:53.468Z,17.08
2023-01-20T16:36:22.394Z,21.90
2023-01-20T16:38:50.000Z,29.13
2023-01-20T16:41:25.362Z,25.85
2023-01-20T16:43:53.821Z,22.92
2023-01-20T16:46:26.597Z,18.63
2023-01-20T16:48:59.233Z,16.55
2023-01-20T16:51:26.595Z,18.63
2023-01-20T16:53:54.392Z,17.50
2023-01-20T16:56:27.748Z,17.95
2023-01-20T16:58:57.850Z,20.17
2023-01-20T17:01:25.990Z,23.27
2023-01-20T17:03:54.919Z,26.55
2023-01-20T17:06:23.901Z,24.48
2023-01-20T17:08:52.988Z,21.10
2023-01-20T17:11:24.045Z,20.75
2023-01-20T17:13:50.720Z,21.58
2023-01-20T17:16:18.328Z,20.10
2023-01-20T17:18:49.213Z,22.00
2023-01-20T17:21:15.912Z,19.50
2023-01-20T17:23:42.697Z,21.27
2023-01-20T17:26:09.879Z,26.02
2023-01-20T17:28:36.708Z,28.80
2023-01-20T17:31:07.247Z,25.83
2023-01-20T17:33:34.002Z,28.70
2023-01-20T17:36:03.243Z,37.33
2023-01-20T17:38:31.491Z,30.30
2023-01-20T17:41:02.470Z,29.33
2023-01-20T17:43:36.730Z,29.40
2023-01-20T17:46:13.505Z,24.33
2023-01-20T17:48:40.179Z,25.20
2023-01-20T17:51:18.083Z,22.58
2023-01-20T17:53:44.976Z,23.98
2023-01-20T17:56:13.753Z,23.10
2023-01-20T17:58:45.015Z,24.08
2023-01-20T18:01:21.280Z,26.70
2023-01-20T18:03:50.290Z,30.95
2023-01-20T18:06:19.401Z,26.50
2023-01-20T18:08:51.950Z,23.23
2023-01-20T18:11:23.127Z,20.88
2023-01-20T18:13:52.168Z,19.92
2023-01-20T18:16:21.165Z,19.88
2023-01-20T18:18:49.026Z,24.52
2023-01-20T18:21:21.429Z,19.55
2023-01-20T18:23:50.046Z,23.63
2023-01-20T18:26:19.684Z,22.75
2023-01-20T18:28:49.193Z,23.27
2023-01-20T18:31:18.780Z,22.35
2023-01-20T18:33:48.145Z,22.40
2023-01-20T18:38:46.020Z,20.50
2023-01-20T18:41:14.469Z,22.40
2023-01-20T18:43:41.615Z,21.47
2023-01-20T18:46:09.377Z,21.88
2023-01-20T18:48:40.766Z,20.73
2023-01-20T18:51:10.593Z,20.85
2023-01-20T18:53:37.825Z,21.42
2023-01-20T18:56:08.640Z,22.63
2023-01-20T18:58:36.796Z,24.25
2023-01-20T19:01:09.249Z,21.02
2023-01-20T19:03:36.678Z,19.98
2023-01-20T19:06:17.549Z,21.30
2023-01-20T19:08:45.521Z,20.30
2023-01-20T19:11:14.793Z,22.45
2023-01-20T19:16:10.553Z,23.20
2023-01-20T19:18:37.632Z,21.30
2023-01-20T19:21:05.617Z,21.70
2023-01-20T19:23:32.384Z,22.95
2023-01-20T19:26:04.711Z,26.73
2023-01-20T19:28:31.569Z,25.45
2023-01-20T19:31:13.087Z,30.05
2023-01-20T19:33:40.608Z,28.50
2023-01-20T19:36:10.497Z,27.88
2023-01-20T19:38:37.570Z,26.27
2023-01-20T19:41:05.893Z,23.35
2023-01-20T19:43:32.905Z,22.83
2023-01-20T19:46:04.687Z,22.00
2023-01-20T19:48:32.809Z,21.40
2023-01-20T19:51:07.298Z,29.65
2023-01-20T19:53:34.438Z,29.27
2023-01-20T19:56:07.089Z,30.45
2023-01-20T19:58:34.556Z,28.60
2023-01-20T20:01:13.313Z,24.92
2023-01-20T20:03:40.281Z,28.77
2023-01-20T20:06:08.485Z,27.85
2023-01-20T20:08:37.858Z,29.17
2023-01-20T20:13:31.049Z,27.60
2023-01-20T20:16:02.423Z,28.02
2023-01-20T20:18:29.163Z,28.83
2023-01-20T20:20:55.783Z,30.80
2023-01-20T20:23:22.865Z,41.95
2023-01-20T20:25:57.482Z,44.30
2023-01-20T20:28:27.776Z,33.45
2023-01-20T20:30:57.797Z,36.40
2023-01-20T20:33:24.746Z,34.55
2023-01-20T20:35:51.999Z,33.95
2023-01-20T20:38:18.787Z,34.72
2023-01-20T20:40:45.499Z,31.25
2023-01-20T20:43:12.216Z,31.42
2023-01-20T20:45:38.852Z,31.13
2023-01-20T20:48:05.841Z,31.35
2023-01-20T20:50:32.665Z,31.27
2023-01-20T20:52:59.331Z,31.67
2023-01-20T20:55:26.286Z,31.38
2023-01-20T20:57:53.028Z,28.65
2023-01-20T21:00:23.553Z,27.20
2023-01-20T21:02:50.595Z,28.02
2023-01-20T21:05:19.038Z,31.08
2023-01-20T21:07:46.290Z,30.33
2023-01-20T21:10:15.665Z,29.27
2023-01-20T21:12:44.145Z,32.83
2023-01-20T21:15:11.697Z,32.55
2023-01-20T21:17:39.274Z,30.08
2023-01-20T21:20:07.149Z,30.52
2023-01-20T21:22:34.270Z,28.23
2023-01-20T21:25:00.930Z,31.27
2023-01-20T21:27:27.713Z,29.70
2023-01-20T21:29:54.343Z,25.50
2023-01-20T21:32:20.943Z,28.02
2023-01-20T21:34:47.556Z,31.10
2023-01-20T21:37:15.072Z,32.70
2023-01-20T21:39:41.817Z,28.98
2023-01-20T21:42:09.242Z,27.88
2023-01-20T21:44:36.551Z,31.00
2023-01-20T21:47:10.893Z,31.80
2023-01-20T21:49:56.066Z,25.58
2023-01-20T21:52:43.116Z,28.55
2023-01-20T21:55:11.345Z,25.05
2023-01-20T21:57:38.903Z,24.73
2023-01-20T22:00:08.635Z,24.55
2023-01-20T22:02:35.831Z,24.27
2023-01-20T22:05:02.573Z,24.10
2023-01-20T22:07:29.488Z,24.42
2023-01-20T22:09:58.219Z,25.95
2023-01-20T22:12:25.125Z,23.70
2023-01-20T22:14:51.737Z,22.95
2023-01-20T22:17:18.749Z,24.95
2023-01-20T22:19:45.611Z,24.52
2023-01-20T22:22:14.885Z,24.75
2023-01-20T22:24:42.080Z,27.55
2023-01-20T22:27:08.883Z,25.73
2023-01-20T22:29:35.583Z,24.23
2023-01-20T22:32:04.174Z,23.75
2023-01-20T22:34:31.312Z,25.45
2023-01-20T22:37:00.983Z,24.58
2023-01-20T22:39:28.313Z,24.52
2023-01-20T22:41:55.031Z,23.50
2023-01-20T22:44:21.723Z,23.77
2023-01-20T22:46:48.464Z,26.48
2023-01-20T22:49:15.148Z,26.83
2023-01-20T22:51:42.010Z,26.83
2023-01-20T22:54:10.776Z,26.40
2023-01-20T22:56:39.015Z,26.52
2023-01-20T22:59:06.328Z,24.58
2023-01-20T23:01:35.199Z,23.85
2023-01-20T23:04:04.646Z,23.02
2023-01-20T23:09:04.547Z,23.42
2023-01-20T23:11:31.717Z,23.08
2023-01-20T23:13:58.572Z,25.90
2023-01-20T23:16:25.398Z,24.40
2023-01-20T23:18:52.507Z,23.77
2023-01-20T23:21:20.544Z,25.63
2023-01-20T23:23:54.217Z,25.02
2023-01-20T23:26:23.339Z,23.90
2023-01-20T23:28:50.624Z,23.38
2023-01-20T23:31:17.975Z,27.92
2023-01-20T23:33:44.800Z,24.15
2023-01-20T23:36:15.757Z,25.63
2023-01-20T23:38:43.842Z,24.20
2023-01-20T23:41:11.615Z,25.33
2023-01-20T23:43:38.332Z,24.50
2023-01-20T23:46:06.251Z,24.10
2023-01-20T23:48:33.962Z,26.17
2023-01-20T23:51:01.859Z,22.90
2023-01-20T23:53:30.914Z,24.73
2023-01-20T23:56:06.254Z,25.20
2023-01-20T23:58:33.165Z,26.05
